Terminal Aerodrome Forecast
Issued by NWS Springfield, MO

Home | Current Version | Previous Version | Text Only | Print | Product List | Glossary On
Versions: 1 2 3 4 5 6 7 8 9 10 11 12 13 14 15
739
FTUS43 KSGF 201720
TAFSGF
TAF
KSGF 201720Z 2018/2118 20016G24KT P6SM SKC
     FM210000 19009KT P6SM FEW250
     FM211300 22007KT P6SM BKN200
     FM211700 30007KT P6SM SCT200=

USA.gov is the U.S. government's official web portal to all federal, state and local government web resources and services.